Wilhelmshaven-Mariensiel Airport

EDWI · 下萨克森, 德国

使用的METAR站距离机场50 km。
罗盘
风向 的 风向 230° Wilhelmshaven-Mariensiel Airport 2/20
风: 14 kt, 4 beaufort

12 kt

7 kt
改变
0 ft 1.000 2.000 3.000 4.000 5.000
Cloud Cloud Cloud Cloud
SCT 1.200
Cloud Cloud Cloud Cloud Cloud Cloud
BKN 5.000
METAR ETMN 210120Z 23014KT 8000 SCT012 BKN050 09/08 Q1015 BLU GRN TEMPO YLO

METAR Wilhelmshaven-Mariensiel Airport - EDWI/WVN

Wilhelmshaven-Mariensiel Airport是,德国中的小机场。 该机场位于纬度53,50259和经度8,05219。 该机场有2条跑道: 2/20 和 16/34. 本场的ICAO机场代码为EDWI。 该机场的IATA代码为WVN。 机场在Bremen FIR中。

该航空气象观测是针对Nordholz Naval Airbase在2024年2月21日 02:20, 当地时间进行的。

机场观察

风向为230°,速度为14 kt。

可见度为8 km。

有疏云,零星散落的云朵在1.200 ft的高度 和 碎云在5.000 ft的高度。 破损或更高的上限为5.000 ft。

温度为9 °C,阵风为4 °C。 露点为8 °C,相对湿度为94%。 海平面上的气压为1015 hPa (QNH)。

发展趋势

  • 暂时的

    可变方向的风很小或没有。

白天

今天,太阳从07:34升起,在17:48降落。 这适用于Wilhelmshaven-Mariensiel Airport,世界夏令时可能有所不同。 当地时间与世界标准时间之间的时差为+1 小时。 当前,没有夏令时有效。

公司介绍

本场上唯一已知的公司是Wiking Helikopter Service GmbH。

体会

到Vliegles.nl去找飞行课程,跳伞和其他飞行体验。 浏览页面,了解Wilhelmshaven-Mariensiel Airport附近所有可用的活动。 你也可以使用搜索功能来寻找你所在地附近的特定飞行课程、跳伞或其他飞行体验。

跑道

Id 标题 侧风 逆风 侧风 %
2/20 022°-202° 7 kt 12 kt 47 %
16/34 155°-335° 14 kt 4 kt 97 %

逆风成分最大的方向会被突出显示,并用于横风计算。 这并不一定意味着这个方向在使用。

乌云

1.200 ft SCT 疏云,零星散落的云朵
5.000 ft BKN 碎云

温度 & 天气

温度 9 °C
露点 8 °C
相对湿度 94%
风寒 4 °C
Kp-index 0 (0-9)

白天

日出
07:32 (4:34)
中午
12:39
日落
17:45

小工具

你想在你的网站上有一个关于Wilhelmshaven-Mariensiel Airport的当前航空天气(METAR)的小部件吗?

显示HTML代码
?>